Massanutten, Virginia
Current Conditions -  °F | °C
As of 5:15 PM on Tuesday 25 Nov 2014 (Local Time) from KSHD Reporting Station
Clear Clear  
Wind Chill: 47°   Ceiling: Unl
Heat Index: 47°   Visibility: 10mi
Dew Point: 26°   Wind: 0mph
Humidity: 45%   Direction: NA
Pressure: 30.06"   Gusts: NA
Location:  38.3726°N, 78.7456°W
Report Text: KSHD 252215Z AUTO 00000KT 10SM CLR 08/M03 A3006 RMK AO2 T00821031
Loading
Personal Weather Stations






























Interactive Weather Map New forecast layout! Learn more

10-Day Weather Forecast

Advertisements
Track Severe Weather on mobile